Magna, Utah
Current Conditions -  °F | °C
As of 11:53 PM on Sunday 23 Nov 2014 (Local Time) from KSLC Reporting Station
Overcast Overcast  
Wind Chill: 30°   Ceiling: 8000
Heat Index: 36°   Visibility: 10mi
Dew Point: 23°   Wind: 7mph
Humidity: 59%   Direction: 140°SE
Pressure: 30.22"   Gusts: NA
Location:  40.7°N, 112.09°W
Report Text: KSLC 240653Z 14006KT 10SM SCT060 BKN080 OVC090 02/M05 A3022 RMK AO2 SLP236 T00221050 400501006
Loading
Personal Weather Stations






























Interactive Weather Map New forecast layout! Learn more

10-Day Weather Forecast

Advertisements
Track Severe Weather on mobile